Flight Track Log - Related Links

Times and Time Zones

All times are in EDT time to prevent confusion due to time zone crossing. See the LBQ652 flight status page for this flight to view local times or setup timezone preferences in your user account.

Time Position Orientation Groundspeed Altitude Reporting Facility
EDT Latitude Longitude Course Direction KTS MPH feet Rate Location/Type
Wed 11:46:29 PM 40.4131 -76.0811 288° West 184 212 4,200  Level New York Center
Wed 11:47:29 PM 40.4403 -76.1678 292° West 223 257 4,900 600 Climbing New York Center
Wed 11:48:29 PM 40.4678 -76.2492 294° West 242 278 5,400 1,271 Climbing New York Center
Wed 11:49:27 PM 40.4847 -76.3322 285° West 248 285 7,400 1,916 Climbing New York Center
Wed 11:50:00 PM 40.5224 -76.4727 288° West  Level FlightAware Approximate
Wed 11:50:28 PM 40.4783 -76.4244 265° West 243 280 9,200  Level New York Center
Wed 11:51:00 PM 40.5458 -76.5665 288° West  Level FlightAware Approximate
Wed 11:51:26 PM 40.4706 -76.5003 262° West 243 280 10,800  Level New York Center
Wed 11:52:26 PM 40.4614 -76.6033 263° West 249 287 12,400 1,488 Climbing New York Center
Wed 11:53:27 PM 40.4550 -76.6900 264° West 258 297 13,800 1,041 Climbing New York Center
Wed 11:54:27 PM 40.4464 -76.7739 262° West 251 289 14,500 843 Climbing New York Center
Wed 11:55:28 PM 40.4375 -76.8658 263° West 256 295 15,500 1,041 Climbing New York Center
Wed 11:56:28 PM 40.4281 -76.9686 263° West 256 295 16,600 1,100 Climbing New York Center
Wed 11:57:28 PM 40.4214 -77.0581 264° West 256 295 17,700 1,140 Climbing New York Center
Wed 11:58:29 PM 40.4117 -77.1608 263° West 261 300 18,900 1,119 Climbing New York Center
Wed 11:59:26 PM 40.4022 -77.2553 263° West 266 306 19,900 857 Climbing New York Center
Thu 12:00:28 AM 40.3956 -77.3419 264° West 266 306 20,600 808 Climbing New York Center
Thu 12:02:02 AM 40.3628 -77.4847 253° West 261 300 22,000 935 Climbing Cleveland Center
Thu 12:03:02 AM 40.3208 -77.5575 233° Southwest 251 289 23,000 1,200 Climbing Cleveland Center
Thu 12:04:02 AM 40.2831 -77.6272 235° Southwest 251 289 24,400 1,700 Climbing Cleveland Center
Thu 12:05:02 AM 40.2431 -77.6944 232° Southwest 246 283 26,400 1,750 Climbing Cleveland Center
Thu 12:06:02 AM 40.2072 -77.7611 235° Southwest 235 270 27,900 1,450 Climbing Cleveland Center
Thu 12:07:02 AM 40.1756 -77.8306 239° Southwest 235 270 29,300 1,500 Climbing Cleveland Center
Thu 12:08:02 AM 40.1550 -77.9208 253° West 229 264 30,900 1,450 Climbing Cleveland Center
Thu 12:09:02 AM 40.1461 -77.9975 261° West 235 270 32,200 1,300 Climbing Cleveland Center
Thu 12:10:02 AM 40.1356 -78.0767 260° West 225 259 33,500 900 Climbing Cleveland Center
Thu 12:11:02 AM 40.1247 -78.1556 260° West 219 252 34,000 250 Climbing Cleveland Center
Thu 12:12:02 AM 40.1119 -78.2458 260° West 232 267 34,000  Level Cleveland Center
Thu 12:13:02 AM 40.0972 -78.3439 259° West 257 296 34,000  Level Cleveland Center
Thu 12:14:02 AM 40.0847 -78.4447 261° West 276 318 34,000  Level Cleveland Center
Thu 12:15:02 AM 40.0719 -78.5456 261° West 282 325 34,000  Level Cleveland Center
Thu 12:16:02 AM 40.0569 -78.6436 259° West 282 325 34,000  Level Cleveland Center
Thu 12:17:02 AM 40.0439 -78.7417 260° West 277 319 34,000  Level Cleveland Center
Thu 12:18:02 AM 40.0289 -78.8425 259° West 277 319 34,000  Level Cleveland Center
Thu 12:19:02 AM 40.0158 -78.9431 260° West 277 319 34,000  Level Cleveland Center
Thu 12:20:02 AM 40.0067 -79.0328 262° West 277 319 34,000  Level Cleveland Center
Thu 12:21:02 AM 39.9911 -79.1333 259° West 277 319 34,000  Level Cleveland Center
Thu 12:22:02 AM 39.9778 -79.2286 260° West 277 319 34,000  Level Cleveland Center
Thu 12:23:02 AM 39.9622 -79.3264 258° West 277 319 34,000  Level Cleveland Center
Thu 12:24:02 AM 39.9486 -79.4242 260° West 277 319 34,000  Level Cleveland Center
Thu 12:25:02 AM 39.9350 -79.5217 260° West 277 319 34,000  Level Cleveland Center
Thu 12:26:02 AM 39.9233 -79.6194 261° West 277 319 34,000  Level Cleveland Center
Thu 12:27:02 AM 39.9075 -79.7144 258° West 277 319 34,000  Level Cleveland Center
Thu 12:28:02 AM 39.8936 -79.8092 259° West 277 319 34,000  Level Cleveland Center
Thu 12:29:02 AM 39.8775 -79.9150 259° West 277 319 34,000  Level Cleveland Center
Thu 12:30:02 AM 39.8614 -80.0097 258° West 277 319 34,000  Level Cleveland Center
Thu 12:31:02 AM 39.8494 -80.1044 261° West 277 319 34,000  Level Cleveland Center
Thu 12:32:02 AM 39.8331 -80.1964 257° West 277 319 34,000  Level Cleveland Center
Thu 12:33:02 AM 39.8208 -80.2883 260° West 277 319 34,000  Level Cleveland Center
Thu 12:34:02 AM 39.8064 -80.3831 259° West 277 319 34,000  Level Cleveland Center
Thu 12:35:02 AM 39.7919 -80.4778 259° West 277 319 34,000  Level Cleveland Center
Thu 12:36:02 AM 39.7775 -80.5694 258° West 277 319 34,000  Level Cleveland Center
Thu 12:37:34 AM 39.7517 -80.7042 256° West 262 302 34,000  Level Indianapolis Center
Thu 12:38:35 AM 39.7381 -80.7964 259° West 259 298 34,000  Level Indianapolis Center
Thu 12:39:36 AM 39.7239 -80.8878 259° West 259 298 34,000  Level Indianapolis Center
Thu 12:40:36 AM 39.7094 -80.9778 258° West 256 295 34,000  Level Indianapolis Center
Thu 12:41:37 AM 39.6947 -81.0697 258° West 258 297 34,000  Level Indianapolis Center
Thu 12:42:37 AM 39.6800 -81.1600 258° West 257 296 34,000  Level Indianapolis Center
Thu 12:43:38 AM 39.6658 -81.2514 259° West 260 299 34,000  Level Indianapolis Center
Thu 12:44:38 AM 39.6503 -81.3408 257° West 256 295 34,000  Level Indianapolis Center
Thu 12:45:39 AM 39.6350 -81.4311 258° West 256 295 34,000  Level Indianapolis Center
Thu 12:46:39 AM 39.6214 -81.5214 259° West 255 293 34,000  Level Indianapolis Center
Thu 12:47:40 AM 39.6064 -81.6094 258° West 252 290 34,000  Level Indianapolis Center
Thu 12:48:40 AM 39.5919 -81.7000 258° West 255 293 34,000  Level Indianapolis Center
Thu 12:49:41 AM 39.5767 -81.7894 258° West 255 293 34,000  Level Indianapolis Center
Thu 12:50:41 AM 39.5611 -81.8797 257° West 257 296 34,000  Level Indianapolis Center
Thu 12:51:42 AM 39.5439 -81.9853 258° West 251 289 34,000  Level Indianapolis Center
Thu 12:52:42 AM 39.5278 -82.0764 257° West 257 296 34,000  Level Indianapolis Center
Thu 12:53:43 AM 39.5156 -82.1519 258° West 249 287 34,000  Level Indianapolis Center
Thu 12:54:43 AM 39.4992 -82.2425 257° West 253 291 34,000 -694 Level Indianapolis Center
Thu 12:55:44 AM 39.4839 -82.3336 258° West 257 296 32,600 -1,388 Descending Indianapolis Center
Thu 12:56:44 AM 39.4675 -82.4278 257° West 263 303 31,200 -1,400 Descending Indianapolis Center
Thu 12:57:44 AM 39.4508 -82.5219 257° West 265 305 29,800 -1,438 Descending Indianapolis Center
Thu 12:58:45 AM 39.4336 -82.6197 257° West 274 315 28,300 -1,488 Descending Indianapolis Center
Thu 12:59:45 AM 39.4167 -82.7189 258° West 278 320 26,800 -1,488 Descending Indianapolis Center
Thu 01:00:46 AM 39.3989 -82.8167 257° West 278 320 25,300 -1,488 Descending Indianapolis Center
Thu 01:01:46 AM 39.3811 -82.9153 257° West 279 321 23,800 -1,488 Descending Indianapolis Center
Thu 01:02:47 AM 39.3647 -83.0144 258° West 279 321 22,300 -1,488 Descending Indianapolis Center
Thu 01:03:47 AM 39.3456 -83.1158 256° West 285 328 20,800 -1,550 Descending Indianapolis Center
Thu 01:04:47 AM 39.3272 -83.2192 257° West 292 336 19,200 -1,438 Descending Indianapolis Center
Thu 01:05:48 AM 39.3075 -83.3231 256° West 293 337 17,900 -1,488 Descending Indianapolis Center
Thu 01:06:48 AM 39.2889 -83.4278 257° West 295 339 16,200 -1,600 Descending Indianapolis Center
Thu 01:07:48 AM 39.2711 -83.5292 257° West 288 331 14,700 -1,537 Descending Indianapolis Center
Thu 01:08:49 AM 39.2519 -83.6322 257° West 292 336 13,100 -1,587 Descending Indianapolis Center
Thu 01:09:49 AM 39.2317 -83.7358 256° West 295 339 11,500 -1,550 Descending Indianapolis Center
Thu 01:10:49 AM 39.2133 -83.8350 257° West 283 326 10,000 -1,488 Descending Indianapolis Center
Thu 01:11:50 AM 39.1967 -83.9344 258° West 282 325 8,500 -1,587 Descending Indianapolis Center
Thu 01:12:50 AM 39.1814 -84.0350 259° West 283 326 6,800 -1,550 Descending Indianapolis Center
Thu 01:13:50 AM 39.1694 -84.1256 260° West 261 300 5,400 -1,339 Descending Indianapolis Center
Thu 01:14:51 AM 39.1581 -84.2075 260° West 245 282 4,100 -1,190 Descending Indianapolis Center
Thu 01:15:51 AM 39.1503 -84.2725 261° West 232 267 3,000 -750 Descending Indianapolis Center
Thu 01:16:51 AM 39.1428 -84.3575 264° West 226 260 2,600 -400 Descending Indianapolis Center

Login

Don't have an account? Register now (free) for customized features, flight alerts, and more!